Time;durP1;ratioP1;P1;durP2;ratioP2;P2;SDS_P1;SDS_P2;PMS_P1;PMS_P2;Temp;Humidity;BMP_temperature;BMP_pressure;BME280_temperature;BME280_humidity;BME280_pressure;Samples;Min_cycle;Max_cycle;Signal;HPM_P1;HPM_P2
2022/03/10 00:00:29;;;;;;;6.90;4.50;;;5.90;45.80;;;;;;5077831;28;20171;-73
2022/03/10 00:02:57;;;;;;;6.70;4.87;;;5.90;46.00;;;;;;5112520;27;20187;-75
2022/03/10 00:05:25;;;;;;;5.93;4.73;;;5.80;46.00;;;;;;5074492;28;20203;-73
2022/03/10 00:07:53;;;;;;;7.27;5.03;;;5.80;46.10;;;;;;5105027;27;20209;-75
2022/03/10 00:10:21;;;;;;;8.20;4.90;;;5.70;46.30;;;;;;5103454;28;20225;-75
2022/03/10 00:12:53;;;;;;;8.10;5.23;;;5.70;46.20;;;;;;5101763;27;20192;-73
2022/03/10 00:15:24;;;;;;;6.73;4.60;;;5.70;46.40;;;;;;5103002;27;20191;-76
2022/03/10 00:17:51;;;;;;;5.80;4.37;;;5.70;46.40;;;;;;5068433;28;20183;-73
2022/03/10 00:20:16;;;;;;;7.77;4.93;;;5.70;46.50;;;;;;5076748;28;21377;-75
2022/03/10 00:22:44;;;;;;;6.67;4.50;;;5.70;46.80;;;;;;5080473;28;20176;-76
2022/03/10 00:25:12;;;;;;;5.63;4.33;;;5.70;46.60;;;;;;5074135;28;20199;-76
2022/03/10 00:27:37;;;;;;;6.27;4.80;;;5.60;46.60;;;;;;5106754;27;20258;-76
2022/03/10 00:30:04;;;;;;;6.30;4.80;;;5.60;46.80;;;;;;5104180;27;20227;-73
2022/03/10 00:32:30;;;;;;;7.37;4.60;;;5.60;47.00;;;;;;5111472;27;20188;-72
2022/03/10 00:34:58;;;;;;;7.57;5.47;;;5.60;46.90;;;;;;5081873;28;20249;-75
2022/03/10 00:37:23;;;;;;;7.60;5.67;;;5.50;47.20;;;;;;5116370;27;20208;-75
2022/03/10 00:39:49;;;;;;;7.80;5.00;;;5.50;47.80;;;;;;5110678;27;20229;-75
2022/03/10 00:42:14;;;;;;;6.83;4.60;;;5.50;47.90;;;;;;5107111;28;20184;-74
2022/03/10 00:44:40;;;;;;;7.80;5.10;;;5.40;47.90;;;;;;5107211;27;20235;-74
2022/03/10 00:47:06;;;;;;;7.43;5.30;;;5.40;48.10;;;;;;5107079;27;20167;-75
2022/03/10 00:49:34;;;;;;;8.00;4.90;;;5.40;48.10;;;;;;5098616;27;20172;-68
2022/03/10 00:51:59;;;;;;;8.40;5.07;;;5.30;47.80;;;;;;5074711;28;20169;-75
2022/03/10 00:54:27;;;;;;;10.87;4.83;;;5.30;47.70;;;;;;5067841;28;20303;-75
2022/03/10 00:56:53;;;;;;;8.30;4.67;;;5.30;47.90;;;;;;5088048;28;20176;-75
2022/03/10 00:59:21;;;;;;;7.70;4.67;;;5.20;47.80;;;;;;5098847;28;20199;-75
2022/03/10 01:01:49;;;;;;;7.37;5.20;;;5.30;48.50;;;;;;5086032;28;20191;-71
2022/03/10 01:04:17;;;;;;;6.83;5.00;;;5.20;48.10;;;;;;5105260;27;20176;-75
2022/03/10 01:06:43;;;;;;;5.73;4.03;;;5.20;48.10;;;;;;5072342;28;20362;-73
2022/03/10 01:09:11;;;;;;;6.17;4.57;;;5.10;47.80;;;;;;5108443;27;20179;-74
2022/03/10 01:11:37;;;;;;;5.80;4.30;;;5.10;48.10;;;;;;5103506;27;20184;-73
2022/03/10 01:14:04;;;;;;;6.37;4.63;;;5.10;48.00;;;;;;5076267;28;20199;-74
2022/03/10 01:16:32;;;;;;;7.80;5.40;;;5.10;48.10;;;;;;5078562;28;20187;-74
2022/03/10 01:19:00;;;;;;;9.50;5.50;;;5.10;48.60;;;;;;5075830;28;20180;-74
2022/03/10 01:21:26;;;;;;;7.07;4.90;;;5.00;48.60;;;;;;5100378;27;20201;-74
2022/03/10 01:23:53;;;;;;;6.50;4.70;;;5.00;48.60;;;;;;5074472;28;20190;-68
2022/03/10 01:26:21;;;;;;;6.50;4.60;;;5.00;48.70;;;;;;5108312;28;20203;-73
2022/03/10 01:28:49;;;;;;;7.97;4.33;;;5.00;48.80;;;;;;5107047;27;20196;-71
2022/03/10 01:31:20;;;;;;;6.67;4.30;;;4.90;48.80;;;;;;5102451;27;20195;-74
2022/03/10 01:33:47;;;;;;;6.17;4.37;;;4.90;49.10;;;;;;5106524;28;20229;-71
2022/03/10 01:36:13;;;;;;;6.43;4.47;;;4.90;49.00;;;;;;5080913;28;20248;-74
2022/03/10 01:38:39;;;;;;;6.83;4.90;;;4.90;49.20;;;;;;5077460;28;20172;-71
2022/03/10 01:41:06;;;;;;;6.33;4.27;;;4.90;49.20;;;;;;5065181;28;20191;-74
2022/03/10 01:43:34;;;;;;;6.17;4.37;;;4.80;49.20;;;;;;5073485;28;20210;-74
2022/03/10 01:46:02;;;;;;;6.93;4.53;;;4.80;49.20;;;;;;5073310;28;20212;-74
2022/03/10 01:48:28;;;;;;;6.83;4.97;;;4.80;49.40;;;;;;5072610;28;20188;-75
2022/03/10 01:50:56;;;;;;;10.63;5.00;;;4.70;49.90;;;;;;5076948;28;20214;-73
2022/03/10 01:53:25;;;;;;;7.93;5.07;;;4.70;49.30;;;;;;5065186;28;20195;-70
2022/03/10 01:55:53;;;;;;;7.00;4.53;;;4.70;49.50;;;;;;5073147;28;20208;-75
2022/03/10 01:58:21;;;;;;;6.80;4.50;;;4.60;49.70;;;;;;5079681;28;20200;-73
2022/03/10 02:00:48;;;;;;;7.07;4.33;;;4.60;49.90;;;;;;5073160;28;20177;-73
2022/03/10 02:03:14;;;;;;;7.93;4.73;;;4.60;50.00;;;;;;5085641;28;20177;-72
2022/03/10 02:05:42;;;;;;;6.47;4.37;;;4.50;49.90;;;;;;5108070;27;20191;-74
2022/03/10 02:10:52;;;;;;;6.87;4.90;;;4.50;50.20;;;;;;5090672;28;20211;-72
2022/03/10 02:13:19;;;;;;;7.60;5.00;;;4.50;50.40;;;;;;5105430;28;20176;-72
2022/03/10 02:18:36;;;;;;;7.00;5.00;;;4.50;50.40;;;;;;5089070;28;20218;-73
2022/03/10 02:21:05;;;;;;;8.23;4.80;;;4.50;50.50;;;;;;5092658;28;20171;-74
2022/03/10 02:23:32;;;;;;;8.17;5.03;;;4.50;50.60;;;;;;5079707;28;20182;-74
2022/03/10 02:26:03;;;;;;;7.53;5.03;;;4.50;50.30;;;;;;5113721;28;20191;-73
2022/03/10 02:28:29;;;;;;;8.70;5.83;;;4.50;51.10;;;;;;5072804;28;20171;-75
2022/03/10 02:30:55;;;;;;;8.60;5.93;;;4.50;52.50;;;;;;5072668;28;20224;-74
2022/03/10 02:33:21;;;;;;;8.00;5.60;;;4.50;52.50;;;;;;5104912;28;20179;-74
2022/03/10 02:35:47;;;;;;;8.43;5.83;;;4.40;51.90;;;;;;5074351;28;20199;-73
2022/03/10 02:38:20;;;;;;;9.00;5.80;;;4.40;51.90;;;;;;5102177;28;20219;-74
2022/03/10 02:40:47;;;;;;;7.73;5.80;;;4.40;53.90;;;;;;5103353;28;20183;-75
2022/03/10 02:43:19;;;;;;;10.70;6.77;;;4.40;53.00;;;;;;5095978;28;20180;-75
2022/03/10 02:45:48;;;;;;;9.63;5.90;;;4.40;54.50;;;;;;5101981;27;20218;-74
2022/03/10 02:48:14;;;;;;;7.93;5.43;;;4.40;53.80;;;;;;5073118;28;20194;-73
2022/03/10 02:50:42;;;;;;;8.93;5.40;;;4.40;53.80;;;;;;5068700;28;20269;-75
2022/03/10 02:53:09;;;;;;;6.90;4.97;;;4.40;53.50;;;;;;5076598;28;20199;-73
2022/03/10 02:55:37;;;;;;;6.63;4.73;;;4.40;53.10;;;;;;5076081;28;20187;-74
2022/03/10 02:58:03;;;;;;;8.73;5.27;;;4.30;53.00;;;;;;5067062;28;20194;-73
2022/03/10 03:00:28;;;;;;;7.60;5.07;;;4.30;53.60;;;;;;5098292;28;20184;-73
2022/03/10 03:02:56;;;;;;;7.80;5.70;;;4.30;53.40;;;;;;5103317;28;20253;-74
2022/03/10 03:05:22;;;;;;;6.80;4.97;;;4.30;54.10;;;;;;5067360;28;20231;-75
2022/03/10 03:07:51;;;;;;;8.00;5.53;;;4.20;53.60;;;;;;5102098;28;20169;-74
2022/03/10 03:10:17;;;;;;;6.37;4.60;;;4.20;53.50;;;;;;5079030;28;20180;-73
2022/03/10 03:12:50;;;;;;;6.70;4.17;;;4.20;53.60;;;;;;5073127;28;20222;-75
2022/03/10 03:15:16;;;;;;;7.13;5.10;;;4.20;53.70;;;;;;5102346;28;20190;-74
2022/03/10 03:17:42;;;;;;;6.40;4.60;;;4.10;53.60;;;;;;5070535;28;20191;-75
2022/03/10 03:20:14;;;;;;;6.13;4.37;;;4.10;53.70;;;;;;5069766;28;20218;-76
2022/03/10 03:22:45;;;;;;;6.80;4.97;;;4.10;53.90;;;;;;5092348;28;20184;-74
2022/03/10 03:25:17;;;;;;;7.57;4.87;;;4.00;53.60;;;;;;5111443;28;20199;-75
2022/03/10 03:27:45;;;;;;;6.13;4.33;;;4.00;54.20;;;;;;5102875;28;20176;-72
2022/03/10 03:30:11;;;;;;;7.70;5.13;;;4.00;54.50;;;;;;5107610;28;20180;-75
2022/03/10 03:32:39;;;;;;;8.50;5.90;;;3.90;54.00;;;;;;5074020;28;20180;-75
2022/03/10 03:35:07;;;;;;;8.03;5.57;;;3.90;55.10;;;;;;5076392;28;20188;-74
2022/03/10 03:37:35;;;;;;;6.97;5.13;;;3.90;55.00;;;;;;5108260;28;20182;-75
2022/03/10 03:40:00;;;;;;;8.13;5.33;;;3.80;55.20;;;;;;5077265;28;20199;-75
2022/03/10 03:42:29;;;;;;;6.50;4.93;;;3.90;55.60;;;;;;5107507;27;20172;-75
2022/03/10 03:44:55;;;;;;;8.13;5.37;;;3.80;55.10;;;;;;5075664;28;20199;-74
2022/03/10 03:47:22;;;;;;;7.30;5.50;;;3.90;55.70;;;;;;5073555;28;20212;-73
2022/03/10 03:49:48;;;;;;;8.43;5.73;;;3.90;56.20;;;;;;5079195;28;20240;-75
2022/03/10 03:52:13;;;;;;;8.30;5.90;;;3.80;56.50;;;;;;5110680;27;20176;-75
2022/03/10 03:54:39;;;;;;;10.27;5.93;;;3.80;56.40;;;;;;5076446;28;20171;-75
2022/03/10 03:57:07;;;;;;;10.17;6.50;;;3.80;57.50;;;;;;5106723;27;20175;-75
2022/03/10 03:59:35;;;;;;;8.53;5.80;;;3.80;57.60;;;;;;5111781;27;20176;-75
2022/03/10 04:02:03;;;;;;;8.00;5.73;;;3.80;58.00;;;;;;5066332;28;20226;-75
2022/03/10 04:04:32;;;;;;;8.40;5.67;;;3.80;57.90;;;;;;5076507;28;20180;-75
2022/03/10 04:06:57;;;;;;;10.27;6.37;;;3.80;58.50;;;;;;5109434;27;20177;-74
2022/03/10 04:09:23;;;;;;;7.77;5.77;;;3.70;58.60;;;;;;5090326;28;20245;-75
2022/03/10 04:11:50;;;;;;;8.37;5.70;;;3.80;58.00;;;;;;5100020;27;20192;-71
2022/03/10 04:14:19;;;;;;;9.27;6.07;;;3.80;58.90;;;;;;5103070;27;20191;-75
2022/03/10 04:16:45;;;;;;;10.70;7.50;;;3.80;59.20;;;;;;5093253;28;20180;-75
2022/03/10 04:19:11;;;;;;;10.60;6.70;;;3.70;61.90;;;;;;5073805;28;20169;-76
2022/03/10 04:21:39;;;;;;;9.60;6.77;;;3.80;62.00;;;;;;5104475;28;20192;-75
2022/03/10 04:24:05;;;;;;;9.77;6.80;;;3.70;62.70;;;;;;5071043;28;20173;-75
2022/03/10 04:26:30;;;;;;;10.37;6.80;;;3.70;62.00;;;;;;5097962;28;20196;-74
2022/03/10 04:28:56;;;;;;;8.00;5.90;;;3.70;62.20;;;;;;5065527;28;20267;-75
2022/03/10 04:31:22;;;;;;;9.33;5.97;;;3.70;61.40;;;;;;5107592;28;20168;-73
2022/03/10 04:33:47;;;;;;;9.53;5.93;;;3.70;60.80;;;;;;5077687;28;20176;-72
2022/03/10 04:36:13;;;;;;;7.53;5.53;;;3.70;60.80;;;;;;5075375;28;20233;-74
2022/03/10 04:38:39;;;;;;;8.13;5.70;;;3.70;61.00;;;;;;5077178;28;20172;-74
2022/03/10 04:41:07;;;;;;;8.70;5.53;;;3.70;61.60;;;;;;5102967;27;20239;-74
2022/03/10 04:43:35;;;;;;;7.13;5.10;;;3.70;61.30;;;;;;5075475;28;20211;-75
2022/03/10 04:46:00;;;;;;;7.47;5.00;;;3.70;61.00;;;;;;5104917;27;20207;-75
2022/03/10 04:48:26;;;;;;;7.73;5.30;;;3.60;60.00;;;;;;5075870;28;20439;-74
2022/03/10 04:50:52;;;;;;;7.43;5.20;;;3.60;60.40;;;;;;5108015;27;20221;-73
2022/03/10 04:53:18;;;;;;;8.03;5.10;;;3.60;60.70;;;;;;5071048;28;20198;-75
2022/03/10 04:55:45;;;;;;;8.33;5.63;;;3.60;61.00;;;;;;5102264;28;20220;-70
2022/03/10 04:58:16;;;;;;;7.93;5.57;;;3.60;61.40;;;;;;5100981;27;20215;-75
2022/03/10 05:00:41;;;;;;;7.80;5.40;;;3.60;61.40;;;;;;5067215;28;20172;-72
2022/03/10 05:03:07;;;;;;;6.67;5.20;;;3.50;60.60;;;;;;5105340;27;20204;-75
2022/03/10 05:05:33;;;;;;;8.03;5.83;;;3.50;60.80;;;;;;5069625;28;20211;-74
2022/03/10 05:07:58;;;;;;;7.30;4.90;;;3.50;61.00;;;;;;5068263;28;20195;-75
2022/03/10 05:10:24;;;;;;;7.00;5.07;;;3.50;61.20;;;;;;5076969;28;20273;-75
2022/03/10 05:12:52;;;;;;;8.37;5.20;;;3.50;61.20;;;;;;5108105;27;20175;-75
2022/03/10 05:15:30;;;;;;;7.50;5.37;;;3.50;61.70;;;;;;5096783;28;20176;-75
2022/03/10 05:17:57;;;;;;;8.40;5.30;;;3.50;62.40;;;;;;5099714;28;20292;-73
2022/03/10 05:20:25;;;;;;;7.00;5.00;;;3.50;61.40;;;;;;5076850;28;20370;-75
2022/03/10 05:22:53;;;;;;;8.03;5.13;;;3.50;61.30;;;;;;5078688;28;20286;-75
2022/03/10 05:25:23;;;;;;;8.77;6.20;;;3.50;61.90;;;;;;5071769;28;20204;-73
2022/03/10 05:27:52;;;;;;;8.00;5.90;;;3.40;62.80;;;;;;5104939;27;20177;-75
2022/03/10 05:30:19;;;;;;;8.40;5.80;;;3.40;63.70;;;;;;5101020;27;20185;-74
2022/03/10 05:32:45;;;;;;;9.40;6.03;;;3.40;64.00;;;;;;5097028;28;20199;-75
2022/03/10 05:35:14;;;;;;;8.67;6.00;;;3.40;63.00;;;;;;5074716;28;20253;-71
2022/03/10 05:37:40;;;;;;;8.40;5.83;;;3.40;64.20;;;;;;5123276;27;20181;-75
2022/03/10 05:40:10;;;;;;;9.90;6.30;;;3.30;63.30;;;;;;5105736;28;20225;-74
2022/03/10 05:42:40;;;;;;;10.57;6.30;;;3.30;64.10;;;;;;5108799;28;20184;-74
2022/03/10 05:45:10;;;;;;;8.77;5.93;;;3.30;65.90;;;;;;5077010;28;20253;-75
2022/03/10 05:47:39;;;;;;;9.53;6.57;;;3.30;65.70;;;;;;5075326;28;20173;-75
2022/03/10 05:50:09;;;;;;;8.70;5.97;;;3.30;66.30;;;;;;5106237;28;20179;-74
2022/03/10 05:52:40;;;;;;;7.20;5.60;;;3.30;66.10;;;;;;5109393;27;20210;-75
2022/03/10 05:55:07;;;;;;;8.30;5.60;;;3.20;65.90;;;;;;5066157;28;20181;-75
2022/03/10 05:57:33;;;;;;;8.13;5.63;;;3.20;65.00;;;;;;5105518;27;20209;-75
2022/03/10 06:00:01;;;;;;;7.60;5.37;;;3.20;64.80;;;;;;5075937;28;20207;-69
2022/03/10 06:02:29;;;;;;;10.13;6.13;;;3.20;66.00;;;;;;5069008;28;20187;-75
2022/03/10 06:04:59;;;;;;;7.33;5.43;;;3.20;66.00;;;;;;5072567;28;20261;-79
2022/03/10 06:07:25;;;;;;;7.47;5.73;;;3.20;67.80;;;;;;5112581;27;20200;-78
2022/03/10 06:09:55;;;;;;;6.50;4.97;;;3.20;66.00;;;;;;5099033;28;20189;-69
2022/03/10 06:12:23;;;;;;;6.83;5.00;;;3.20;66.90;;;;;;5071564;28;20180;-76
2022/03/10 06:14:52;;;;;;;7.13;5.70;;;3.20;66.20;;;;;;5069067;28;20172;-79
2022/03/10 06:17:17;;;;;;;8.10;5.67;;;3.20;66.40;;;;;;5072332;28;20246;-75
2022/03/10 06:19:43;;;;;;;9.90;5.80;;;3.20;66.20;;;;;;5085817;28;20231;-72
2022/03/10 06:22:14;;;;;;;9.00;6.00;;;3.20;66.50;;;;;;5068616;28;20196;-71
2022/03/10 06:24:42;;;;;;;9.80;5.67;;;3.20;66.70;;;;;;5096078;28;20203;-73
2022/03/10 06:27:08;;;;;;;7.50;5.50;;;3.30;67.50;;;;;;5105067;27;20191;-73
2022/03/10 06:29:33;;;;;;;7.10;5.37;;;3.30;67.20;;;;;;5068520;28;20178;-74
2022/03/10 06:32:01;;;;;;;8.33;6.03;;;3.30;67.40;;;;;;5107888;28;20240;-74
2022/03/10 06:34:27;;;;;;;9.10;6.20;;;3.40;68.70;;;;;;5099147;28;20259;-73
2022/03/10 06:36:56;;;;;;;9.13;6.53;;;3.40;69.70;;;;;;5078159;28;20211;-72
2022/03/10 06:39:22;;;;;;;9.50;6.57;;;3.40;71.00;;;;;;5074528;28;20172;-69
2022/03/10 06:41:50;;;;;;;9.77;7.17;;;3.40;70.50;;;;;;5107403;28;20240;-66
2022/03/10 06:44:15;;;;;;;9.37;6.87;;;3.40;71.10;;;;;;5097027;28;20164;-72
2022/03/10 06:46:43;;;;;;;9.87;6.60;;;3.50;70.40;;;;;;5104080;28;20221;-74
2022/03/10 06:49:09;;;;;;;10.33;7.03;;;3.50;70.00;;;;;;5098751;28;20211;-73
2022/03/10 06:51:39;;;;;;;9.67;7.10;;;3.50;73.50;;;;;;5075804;28;20164;-73
2022/03/10 06:54:05;;;;;;;11.13;7.63;;;3.50;73.30;;;;;;5109190;28;20198;-73
2022/03/10 06:56:33;;;;;;;12.13;6.97;;;3.60;71.80;;;;;;5075862;28;20172;-73
2022/03/10 06:59:01;;;;;;;9.83;6.70;;;3.60;71.10;;;;;;5075571;28;20195;-73
2022/03/10 07:01:27;;;;;;;8.77;6.33;;;3.60;71.00;;;;;;5109364;28;20196;-73
2022/03/10 07:03:58;;;;;;;9.23;5.93;;;3.60;70.60;;;;;;5110012;28;20237;-73
2022/03/10 07:06:25;;;;;;;8.47;5.50;;;3.70;70.40;;;;;;5107516;28;20196;-72
2022/03/10 07:08:51;;;;;;;9.30;5.80;;;3.70;70.20;;;;;;5067156;28;20200;-73
2022/03/10 07:11:19;;;;;;;8.90;6.20;;;3.80;70.70;;;;;;5093161;28;20187;-72
2022/03/10 07:13:46;;;;;;;8.20;5.80;;;3.80;70.70;;;;;;5082363;28;20191;-73
2022/03/10 07:16:14;;;;;;;9.03;6.43;;;3.80;70.70;;;;;;5059276;28;20353;-73
2022/03/10 07:18:50;;;;;;;9.10;6.10;;;3.90;71.60;;;;;;5062596;28;20180;-72
2022/03/10 07:21:17;;;;;;;8.80;6.10;;;4.00;71.90;;;;;;5122146;27;20171;-72
2022/03/10 07:23:42;;;;;;;11.07;6.33;;;4.00;71.10;;;;;;5062211;28;20235;-73
2022/03/10 07:26:10;;;;;;;10.07;5.97;;;4.10;71.70;;;;;;5102736;27;20223;-71
2022/03/10 07:28:36;;;;;;;10.07;5.97;;;4.10;70.70;;;;;;5074850;28;20244;-71
2022/03/10 07:31:04;;;;;;;9.77;6.40;;;4.20;70.70;;;;;;5077065;28;20247;-70
2022/03/10 07:33:30;;;;;;;10.90;6.67;;;4.20;71.40;;;;;;5108094;27;20204;-72
2022/03/10 07:35:55;;;;;;;11.40;7.00;;;4.30;71.70;;;;;;5108628;27;20230;-69
2022/03/10 07:38:24;;;;;;;11.80;6.80;;;4.30;71.40;;;;;;5076879;28;20267;-71
2022/03/10 07:40:51;;;;;;;9.10;6.63;;;4.40;73.60;;;;;;5083254;28;20169;-70
2022/03/10 07:43:17;;;;;;;9.87;6.10;;;4.50;71.70;;;;;;5076122;28;20215;-70
2022/03/10 07:45:44;;;;;;;10.57;6.60;;;4.50;71.40;;;;;;5101802;28;20243;-72
2022/03/10 07:48:10;;;;;;;7.73;5.87;;;4.60;72.60;;;;;;5102906;28;20184;-72
2022/03/10 07:50:36;;;;;;;10.50;6.53;;;4.70;71.90;;;;;;5068544;28;20184;-71
2022/03/10 07:53:04;;;;;;;12.27;6.97;;;4.80;71.70;;;;;;5075536;28;20184;-73
2022/03/10 07:55:34;;;;;;;8.30;5.93;;;4.90;72.90;;;;;;5111448;27;20222;-72
2022/03/10 07:58:02;;;;;;;9.17;6.87;;;5.00;72.20;;;;;;5090732;28;20265;-71
2022/03/10 08:00:34;;;;;;;8.40;6.27;;;5.10;71.70;;;;;;5078763;28;20255;-75
2022/03/10 08:03:00;;;;;;;8.73;5.93;;;5.20;72.20;;;;;;5081712;28;20195;-73
2022/03/10 08:05:28;;;;;;;10.77;6.57;;;5.30;71.40;;;;;;5111896;28;20271;-76
2022/03/10 08:07:58;;;;;;;10.77;6.80;;;5.40;71.80;;;;;;5082107;28;20191;-85
2022/03/10 08:10:24;;;;;;;8.87;6.60;;;5.50;72.00;;;;;;5109191;27;20183;-82
2022/03/10 08:12:50;;;;;;;11.53;7.70;;;5.60;71.60;;;;;;5085094;28;20177;-80
2022/03/10 08:15:21;;;;;;;11.63;7.50;;;5.70;72.10;;;;;;5106565;28;20176;-82
2022/03/10 08:17:49;;;;;;;10.03;7.23;;;5.80;72.60;;;;;;5108995;27;20182;-83
2022/03/10 08:20:17;;;;;;;10.97;6.90;;;6.00;72.60;;;;;;5082341;28;20182;-79
2022/03/10 08:22:43;;;;;;;9.30;6.67;;;6.10;71.70;;;;;;5079579;28;20192;-75
2022/03/10 08:25:12;;;;;;;10.23;6.60;;;6.20;71.50;;;;;;5113744;27;20318;-83
2022/03/10 08:27:40;;;;;;;9.93;7.07;;;6.30;71.10;;;;;;5074522;28;20168;-81
2022/03/10 08:30:09;;;;;;;10.93;7.67;;;6.40;71.10;;;;;;5076382;28;20190;-82
2022/03/10 08:32:34;;;;;;;12.13;7.97;;;6.60;72.00;;;;;;5073393;28;20168;-77
2022/03/10 08:35:03;;;;;;;11.87;8.50;;;6.70;71.70;;;;;;5078484;28;20187;-86
2022/03/10 08:37:30;;;;;;;11.67;8.30;;;6.80;71.80;;;;;;5100862;27;20204;-82
2022/03/10 08:39:56;;;;;;;13.90;8.77;;;6.90;71.60;;;;;;5069129;28;20244;-87
2022/03/10 08:42:24;;;;;;;11.47;8.37;;;7.10;71.10;;;;;;5104794;27;20442;-80
2022/03/10 08:44:52;;;;;;;12.27;8.70;;;7.20;70.90;;;;;;5106527;28;20231;-87
2022/03/10 08:47:18;;;;;;;14.77;9.23;;;7.40;70.20;;;;;;5079577;28;20241;-84
2022/03/10 08:49:44;;;;;;;11.53;8.07;;;7.50;69.40;;;;;;5097227;27;20204;-85
2022/03/10 08:52:11;;;;;;;11.33;7.77;;;7.70;69.80;;;;;;5114128;27;20178;-80
2022/03/10 08:54:36;;;;;;;11.10;7.70;;;7.90;68.70;;;;;;5111230;28;20164;-86
2022/03/10 08:57:02;;;;;;;10.90;7.53;;;8.10;68.00;;;;;;5066546;28;20188;-80
2022/03/10 08:59:28;;;;;;;11.40;8.23;;;8.20;67.00;;;;;;5070218;28;20222;-83
2022/03/10 09:01:55;;;;;;;12.30;7.40;;;8.40;66.10;;;;;;5073351;28;20195;-78
2022/03/10 09:04:26;;;;;;;13.60;8.87;;;8.60;65.80;;;;;;5105953;28;20180;-77
2022/03/10 09:06:54;;;;;;;11.83;8.53;;;8.70;63.80;;;;;;5105911;28;20180;-81
2022/03/10 09:09:24;;;;;;;9.63;7.57;;;8.90;64.10;;;;;;5075625;28;20196;-85
2022/03/10 09:11:49;;;;;;;10.67;7.40;;;9.10;64.20;;;;;;5105818;27;20196;-81
2022/03/10 09:14:17;;;;;;;10.00;7.53;;;9.20;63.90;;;;;;5069500;28;20211;-68
2022/03/10 09:16:45;;;;;;;12.23;8.07;;;9.40;62.90;;;;;;5101805;28;20195;-79
2022/03/10 09:19:11;;;;;;;13.20;8.80;;;9.50;62.20;;;;;;5075565;28;20449;-80
2022/03/10 09:21:39;;;;;;;12.70;8.63;;;9.70;61.50;;;;;;5101950;27;20457;-80
2022/03/10 09:24:05;;;;;;;11.13;7.97;;;9.80;60.60;;;;;;5077466;28;20284;-81
2022/03/10 09:26:31;;;;;;;11.87;8.10;;;9.90;60.00;;;;;;5101571;28;20204;-74
2022/03/10 09:28:56;;;;;;;13.60;9.30;;;10.10;59.60;;;;;;5071501;28;20191;-80
2022/03/10 09:31:22;;;;;;;12.57;8.43;;;10.20;58.10;;;;;;5098002;28;20191;-81
2022/03/10 09:33:48;;;;;;;12.80;8.30;;;10.30;58.40;;;;;;5108195;28;20180;-81
2022/03/10 09:36:16;;;;;;;13.23;9.47;;;10.50;57.90;;;;;;5106858;28;20259;-77
2022/03/10 09:38:43;;;;;;;12.23;8.60;;;10.60;56.70;;;;;;5078435;28;20207;-79
2022/03/10 09:41:08;;;;;;;12.43;8.27;;;10.70;56.40;;;;;;5100173;28;20180;-77
2022/03/10 09:43:37;;;;;;;12.63;8.13;;;10.90;56.50;;;;;;5120438;27;20199;-74
2022/03/10 09:46:09;;;;;;;10.35;7.55;;;11.40;55.90;;;;;;5089905;28;20215;-77
2022/03/10 09:48:36;;;;;;;9.95;7.47;;;12.00;55.60;;;;;;5105677;28;20191;-78
2022/03/10 09:51:02;;;;;;;9.95;7.07;;;12.70;53.70;;;;;;5073477;28;20212;-74
2022/03/10 09:53:31;;;;;;;10.00;7.63;;;13.40;53.70;;;;;;5109298;27;20195;-80
2022/03/10 09:55:57;;;;;;;11.35;7.95;;;14.10;52.60;;;;;;5125175;27;20199;-79
2022/03/10 09:58:26;;;;;;;11.48;7.88;;;14.60;51.00;;;;;;5077832;28;20175;-74
2022/03/10 10:01:01;;;;;;;9.55;7.30;;;15.10;49.60;;;;;;5108744;28;20176;-75
2022/03/10 10:03:27;;;;;;;12.48;7.88;;;15.50;47.10;;;;;;5073991;28;20205;-81
2022/03/10 10:05:58;;;;;;;10.32;7.63;;;15.80;45.90;;;;;;5073776;28;20201;-86
2022/03/10 10:08:27;;;;;;;10.63;8.20;;;16.00;45.10;;;;;;5078369;28;20172;-76
2022/03/10 10:10:56;;;;;;;11.52;8.32;;;16.20;43.50;;;;;;5088129;28;20186;-72
2022/03/10 10:13:28;;;;;;;11.15;7.75;;;16.40;43.60;;;;;;5070233;28;20197;-75
2022/03/10 10:16:02;;;;;;;9.98;7.22;;;16.50;43.10;;;;;;5062301;28;20238;-86
2022/03/10 10:18:29;;;;;;;9.57;6.68;;;16.60;42.50;;;;;;5078253;28;20175;-80
2022/03/10 10:20:55;;;;;;;10.18;6.63;;;16.70;43.70;;;;;;5109815;27;20191;-81
2022/03/10 10:23:27;;;;;;;8.50;6.57;;;16.90;44.00;;;;;;5080431;28;20195;-83
2022/03/10 10:26:04;;;;;;;10.65;7.93;;;17.10;43.30;;;;;;5075053;28;20203;-77
2022/03/10 10:28:41;;;;;;;11.52;7.00;;;17.20;40.70;;;;;;5070554;28;20176;-76
2022/03/10 10:31:12;;;;;;;7.88;6.53;;;17.30;42.00;;;;;;5100536;28;20168;-81
2022/03/10 10:33:41;;;;;;;10.82;7.43;;;17.30;41.70;;;;;;5101944;28;20184;-87
2022/03/10 10:36:34;;;;;;;8.27;6.93;;;17.40;41.40;;;;;;5109500;28;20215;-81
2022/03/10 10:39:16;;;;;;;7.18;6.00;;;17.50;41.70;;;;;;5107650;28;20271;-79
2022/03/10 10:41:45;;;;;;;10.60;7.80;;;17.60;41.70;;;;;;5104091;28;20169;-85
2022/03/10 10:44:16;;;;;;;10.02;7.47;;;17.60;41.10;;;;;;5105337;28;20183;-88
2022/03/10 10:46:46;;;;;;;9.57;7.30;;;17.70;39.90;;;;;;5103539;28;20192;-86
2022/03/10 10:49:20;;;;;;;9.27;7.25;;;17.60;39.90;;;;;;5113324;28;20241;-83
2022/03/10 10:51:50;;;;;;;9.27;7.63;;;17.60;40.00;;;;;;5078466;28;20176;-85
2022/03/10 10:54:19;;;;;;;8.13;6.88;;;17.60;40.10;;;;;;5095423;27;20200;-80
2022/03/10 10:56:56;;;;;;;8.98;6.95;;;17.60;40.60;;;;;;5083950;28;20219;-85
2022/03/10 10:59:43;;;;;;;8.27;6.50;;;17.60;40.40;;;;;;5104588;28;20339;-84
2022/03/10 11:02:20;;;;;;;8.60;6.88;;;17.60;40.10;;;;;;5093749;28;20196;-82
2022/03/10 11:04:47;;;;;;;8.38;6.57;;;17.60;40.70;;;;;;5075301;28;20192;-81
2022/03/10 11:07:14;;;;;;;11.88;6.82;;;17.60;41.20;;;;;;5079770;28;20172;-82
2022/03/10 11:09:42;;;;;;;7.65;6.18;;;17.60;40.80;;;;;;5075987;28;20200;-80
2022/03/10 11:12:10;;;;;;;7.75;6.10;;;17.70;41.10;;;;;;5094296;28;20256;-77
2022/03/10 11:14:36;;;;;;;8.35;6.68;;;17.70;41.80;;;;;;5128754;27;20197;-87
2022/03/10 11:17:05;;;;;;;6.95;5.95;;;17.80;41.80;;;;;;5081634;28;20379;-80
2022/03/10 11:19:34;;;;;;;11.00;6.78;;;17.90;41.40;;;;;;5103480;28;20180;-80
2022/03/10 11:22:08;;;;;;;8.82;6.88;;;17.90;40.50;;;;;;5078785;28;20216;-75
2022/03/10 11:24:46;;;;;;;7.65;6.13;;;17.90;39.80;;;;;;5083975;28;20207;-79
2022/03/10 11:27:18;;;;;;;7.78;5.88;;;17.90;40.80;;;;;;5084660;28;20181;-81
2022/03/10 11:29:53;;;;;;;7.18;5.95;;;17.90;41.10;;;;;;5107412;27;20225;-78
2022/03/10 11:32:24;;;;;;;8.82;5.95;;;17.90;40.40;;;;;;5087048;28;20172;-77
2022/03/10 11:34:53;;;;;;;8.32;6.35;;;17.90;41.10;;;;;;5107015;27;20176;-85
2022/03/10 11:37:37;;;;;;;7.25;5.78;;;17.90;40.80;;;;;;5068102;28;20348;-80
2022/03/10 11:40:08;;;;;;;7.05;6.05;;;17.90;38.20;;;;;;5078065;28;20279;-77
2022/03/10 11:42:37;;;;;;;10.50;7.03;;;17.90;39.20;;;;;;5111189;28;20200;-83
2022/03/10 11:45:19;;;;;;;11.20;7.22;;;17.90;39.10;;;;;;5102524;28;20212;-77
2022/03/10 11:47:50;;;;;;;8.43;6.60;;;18.00;38.80;;;;;;5064451;28;20261;-79
2022/03/10 11:50:24;;;;;;;9.13;6.85;;;17.90;38.80;;;;;;5080830;28;20260;-78
2022/03/10 11:53:03;;;;;;;7.70;6.60;;;17.90;38.10;;;;;;5092823;28;20186;-81
2022/03/10 11:55:48;;;;;;;13.70;6.38;;;17.90;38.30;;;;;;5075510;28;20202;-77
2022/03/10 11:58:35;;;;;;;8.10;6.20;;;17.90;38.10;;;;;;5061070;28;20181;-82
2022/03/10 12:01:01;;;;;;;7.40;6.38;;;17.90;38.10;;;;;;5087050;28;20183;-82
2022/03/10 12:03:35;;;;;;;7.30;5.60;;;17.90;39.00;;;;;;5128234;28;20176;-84
2022/03/10 12:06:02;;;;;;;7.35;5.90;;;18.00;39.00;;;;;;5128221;28;20195;-83
2022/03/10 12:08:35;;;;;;;9.50;5.88;;;18.10;38.80;;;;;;5104357;28;20262;-82
2022/03/10 12:11:06;;;;;;;8.02;5.70;;;18.30;39.00;;;;;;5090399;28;20173;-83
2022/03/10 12:13:39;;;;;;;7.45;5.60;;;18.40;39.50;;;;;;5090716;28;20168;-77
2022/03/10 12:16:31;;;;;;;8.30;5.55;;;18.50;39.00;;;;;;5106732;28;20235;-80
2022/03/10 12:18:58;;;;;;;7.50;5.53;;;18.60;38.20;;;;;;5106349;28;20187;-85
2022/03/10 12:21:27;;;;;;;6.28;5.55;;;18.60;38.60;;;;;;5103112;28;20196;-80
2022/03/10 12:23:56;;;;;;;6.47;5.65;;;18.70;38.60;;;;;;5099571;28;20185;-74
2022/03/10 12:27:01;;;;;;;7.55;5.90;;;18.70;37.40;;;;;;5081333;28;20196;-84
2022/03/10 12:29:31;;;;;;;6.13;5.13;;;18.70;35.60;;;;;;5047780;28;20179;-80
2022/03/10 12:32:08;;;;;;;8.88;5.55;;;18.70;37.80;;;;;;5086218;28;20193;-82
2022/03/10 12:34:34;;;;;;;8.02;5.20;;;18.70;37.80;;;;;;5102542;28;20256;-81
2022/03/10 12:37:02;;;;;;;7.53;5.60;;;18.70;37.70;;;;;;5048609;28;1167954;-82
2022/03/10 12:39:34;;;;;;;8.05;5.32;;;18.70;36.80;;;;;;5074883;28;20176;-77
2022/03/10 12:42:06;;;;;;;7.20;5.07;;;18.70;37.40;;;;;;5072060;28;20192;-84
2022/03/10 12:44:32;;;;;;;7.07;5.50;;;18.80;37.70;;;;;;5086101;28;20179;-84
2022/03/10 12:47:03;;;;;;;5.90;4.90;;;18.80;36.50;;;;;;5106653;27;20222;-84
2022/03/10 12:49:43;;;;;;;5.55;4.50;;;18.90;37.20;;;;;;5097906;28;20184;-86
2022/03/10 12:52:17;;;;;;;5.07;4.40;;;19.10;37.30;;;;;;5088611;28;20207;-81
2022/03/10 12:54:47;;;;;;;4.80;3.78;;;19.20;38.00;;;;;;5097771;28;20207;-81
2022/03/10 12:57:18;;;;;;;4.63;3.97;;;19.40;38.80;;;;;;5070457;28;20271;-84
2022/03/10 12:59:45;;;;;;;5.20;4.55;;;19.50;37.90;;;;;;5106064;27;20266;-88
2022/03/10 13:02:22;;;;;;;5.50;4.32;;;19.60;37.90;;;;;;5100049;28;20172;-84